Time;durP1;ratioP1;P1;durP2;ratioP2;P2;SDS_P1;SDS_P2;PMS_P1;PMS_P2;Temp;Humidity;BMP_temperature;BMP_pressure;BME280_temperature;BME280_humidity;BME280_pressure;Samples;Min_cycle;Max_cycle;Signal;HPM_P1;HPM_P2
2023/02/09 00:00:51;;;;;;;;;;;;;;;24.40;28.00;97132.13;4975198;28;1906;-67
2023/02/09 00:03:16;;;;;;;;;;;;;;;24.42;28.18;97135.47;4952498;28;1296;-67
2023/02/09 00:05:41;;;;;;;;;;;;;;;24.43;28.20;97126.44;4956156;28;1482;-67
2023/02/09 00:08:06;;;;;;;;;;;;;;;24.41;28.41;97132.97;4966263;28;1375;-67
2023/02/09 00:10:32;;;;;;;;;;;;;;;24.44;28.33;97127.25;4974781;28;1340;-66
2023/02/09 00:15:46;;;;;;;;;;;;;;;24.38;28.36;97119.91;4950976;28;1440;-76
2023/02/09 00:18:11;;;;;;;;;;;;;;;24.36;28.67;97119.25;4955631;28;1411;-67
2023/02/09 00:20:37;;;;;;;;;;;;;;;24.28;28.84;97122.81;4961863;28;1907;-67
2023/02/09 00:23:02;;;;;;;;;;;;;;;24.18;28.76;97116.84;4960992;28;1426;-67
2023/02/09 00:25:27;;;;;;;;;;;;;;;24.28;28.88;97120.16;4975096;28;1509;-67
2023/02/09 00:27:52;;;;;;;;;;;;;;;24.19;28.82;97116.69;4983748;28;1260;-66
2023/02/09 00:30:18;;;;;;;;;;;;;;;24.15;28.82;97126.06;4974478;28;1327;-66
2023/02/09 00:32:43;;;;;;;;;;;;;;;24.08;29.19;97121.59;4963682;28;1482;-66
2023/02/09 00:35:08;;;;;;;;;;;;;;;24.29;28.63;97119.13;4955107;28;1470;-66
2023/02/09 00:37:34;;;;;;;;;;;;;;;24.46;28.73;97120.72;4956660;28;1423;-67
2023/02/09 00:39:59;;;;;;;;;;;;;;;24.46;28.67;97114.50;4973550;28;1902;-66
2023/02/09 00:42:24;;;;;;;;;;;;;;;24.45;28.69;97112.84;4972007;28;1311;-69
2023/02/09 00:44:50;;;;;;;;;;;;;;;24.50;28.38;97114.97;4963934;28;1304;-66
2023/02/09 00:47:15;;;;;;;;;;;;;;;24.37;28.70;97105.66;4953316;28;1490;-66
2023/02/09 00:49:40;;;;;;;;;;;;;;;24.31;28.92;97101.00;4949127;28;1324;-66
2023/02/09 00:52:05;;;;;;;;;;;;;;;24.11;28.94;97094.44;4955118;28;1474;-66
2023/02/09 00:54:31;;;;;;;;;;;;;;;24.08;29.35;97090.25;4955101;28;1403;-66
2023/02/09 00:57:03;;;;;;;;;;;;;;;24.18;29.13;97090.03;4960284;28;1403;-66
2023/02/09 00:59:29;;;;;;;;;;;;;;;24.05;29.48;97090.63;4964225;28;1954;-66
2023/02/09 01:01:54;;;;;;;;;;;;;;;24.12;29.25;97096.09;4972447;28;1387;-66
2023/02/09 01:04:19;;;;;;;;;;;;;;;24.10;29.27;97098.94;4959301;28;1466;-66
2023/02/09 01:06:44;;;;;;;;;;;;;;;24.22;28.82;97089.50;4955225;28;1396;-66
2023/02/09 01:09:10;;;;;;;;;;;;;;;24.07;29.38;97091.25;4954899;28;1332;-66
2023/02/09 01:11:35;;;;;;;;;;;;;;;24.20;29.06;97085.31;4957049;28;1340;-66
2023/02/09 01:14:03;;;;;;;;;;;;;;;24.22;29.35;97080.63;4973759;28;1414;-65
2023/02/09 01:16:30;;;;;;;;;;;;;;;24.40;28.97;97081.16;4972756;28;1502;-67
2023/02/09 01:18:57;;;;;;;;;;;;;;;24.43;28.88;97080.00;4972055;28;1312;-67
2023/02/09 01:21:22;;;;;;;;;;;;;;;24.47;29.08;97081.28;4958103;28;1918;-66
2023/02/09 01:23:48;;;;;;;;;;;;;;;24.40;29.22;97070.41;4968632;28;1313;-66
2023/02/09 01:26:14;;;;;;;;;;;;;;;24.44;29.38;97065.56;4966249;28;1411;-66
2023/02/09 01:28:40;;;;;;;;;;;;;;;24.38;29.68;97072.44;4972454;28;1482;-69
2023/02/09 01:31:06;;;;;;;;;;;;;;;24.23;30.05;97076.91;4970922;28;1391;-69
2023/02/09 01:33:31;;;;;;;;;;;;;;;24.07;30.18;97072.50;4954056;28;1410;-68
2023/02/09 01:35:57;;;;;;;;;;;;;;;23.96;30.29;97064.84;4971306;28;1387;-68
2023/02/09 01:38:23;;;;;;;;;;;;;;;23.84;30.47;97061.72;4969712;28;1359;-73
2023/02/09 01:40:48;;;;;;;;;;;;;;;23.85;30.62;97062.56;4953178;29;1906;-69
2023/02/09 01:43:14;;;;;;;;;;;;;;;23.79;30.74;97069.47;4955567;28;1215;-69
2023/02/09 01:45:43;;;;;;;;;;;;;;;23.75;30.66;97069.00;4953557;28;1397;-69
2023/02/09 01:48:09;;;;;;;;;;;;;;;23.74;30.80;97069.19;4969466;28;1412;-69
2023/02/09 01:50:36;;;;;;;;;;;;;;;23.82;30.67;97066.44;4970604;28;1347;-69
2023/02/09 01:53:02;;;;;;;;;;;;;;;23.78;30.81;97068.63;4973447;28;1485;-70
2023/02/09 01:55:29;;;;;;;;;;;;;;;23.81;30.60;97054.06;4966767;28;1374;-69
2023/02/09 01:58:04;;;;;;;;;;;;;;;23.74;30.65;97067.34;4967136;28;1305;-69
2023/02/09 02:00:30;;;;;;;;;;;;;;;23.78;30.95;97060.59;4954479;28;1963;-69
2023/02/09 02:02:58;;;;;;;;;;;;;;;23.91;30.48;97057.34;4955457;28;1505;-69
2023/02/09 02:05:23;;;;;;;;;;;;;;;23.85;30.67;97057.19;4954291;28;1400;-69
2023/02/09 02:07:56;;;;;;;;;;;;;;;23.92;30.68;97059.00;4944158;28;1328;-69
2023/02/09 02:10:22;;;;;;;;;;;;;;;24.05;30.70;97052.22;4971253;28;1383;-73
2023/02/09 02:12:47;;;;;;;;;;;;;;;24.02;30.46;97048.03;4973486;28;810;-67
2023/02/09 02:15:12;;;;;;;;;;;;;;;24.04;30.57;97050.56;4972890;28;1434;-67
2023/02/09 02:17:44;;;;;;;;;;;;;;;24.20;30.67;97040.56;4973911;28;834;-67
2023/02/09 02:20:12;;;;;;;;;;;;;;;24.24;30.40;97047.22;4953387;28;1902;-67
2023/02/09 02:22:55;;;;;;;;;;;;;;;24.28;30.47;97047.72;4957670;28;935;-67
2023/02/09 02:25:38;;;;;;;;;;;;;;;24.30;30.27;97052.88;4957662;28;1482;-67
2023/02/09 02:28:22;;;;;;;;;;;;;;;24.20;30.19;97053.13;4957587;28;796;-67
2023/02/09 02:30:47;;;;;;;;;;;;;;;24.29;30.09;97044.00;4961467;28;1364;-66
2023/02/09 02:33:18;;;;;;;;;;;;;;;24.28;30.16;97055.78;4969937;28;1506;-66
2023/02/09 02:35:57;;;;;;;;;;;;;;;24.33;30.33;97039.94;4976987;28;939;-66
2023/02/09 02:38:43;;;;;;;;;;;;;;;24.46;30.01;97040.22;4973184;28;1320;-66
2023/02/09 02:41:17;;;;;;;;;;;;;;;24.55;29.85;97040.16;4948684;28;1967;-66
2023/02/09 02:43:43;;;;;;;;;;;;;;;24.60;29.99;97032.38;4966555;28;1383;-66
2023/02/09 02:46:28;;;;;;;;;;;;;;;24.58;29.88;97031.72;4975129;28;1482;-67
2023/02/09 02:48:56;;;;;;;;;;;;;;;24.51;30.06;97034.31;4972781;28;1505;-67
2023/02/09 02:51:30;;;;;;;;;;;;;;;24.50;30.12;97026.44;4973007;28;1284;-67
2023/02/09 02:53:56;;;;;;;;;;;;;;;24.48;30.29;97028.44;4950411;28;1446;-65
2023/02/09 02:56:26;;;;;;;;;;;;;;;24.53;30.10;97018.00;4957552;28;1308;-65
2023/02/09 02:58:53;;;;;;;;;;;;;;;24.49;30.12;97012.19;4962022;28;1395;-65
2023/02/09 03:01:21;;;;;;;;;;;;;;;24.51;30.26;97023.56;4969087;28;1953;-65
2023/02/09 03:03:47;;;;;;;;;;;;;;;24.48;29.97;97012.34;4956054;28;1411;-65
2023/02/09 03:06:13;;;;;;;;;;;;;;;24.39;30.08;97012.41;4969978;28;1469;-65
2023/02/09 03:08:49;;;;;;;;;;;;;;;24.44;30.32;97012.72;4976112;28;1524;-65
2023/02/09 03:11:15;;;;;;;;;;;;;;;24.48;30.06;97015.91;4974547;28;1535;-65
2023/02/09 03:13:50;;;;;;;;;;;;;;;24.44;30.12;97011.88;4962920;28;1446;-65
2023/02/09 03:16:27;;;;;;;;;;;;;;;24.45;30.29;97022.47;4964515;28;1297;-65
2023/02/09 03:19:11;;;;;;;;;;;;;;;24.46;29.98;97018.75;4965112;28;1584;-65
2023/02/09 03:21:36;;;;;;;;;;;;;;;24.50;30.26;97013.00;4975983;28;1911;-65
2023/02/09 03:24:19;;;;;;;;;;;;;;;24.51;30.13;97006.66;4958992;28;1422;-65
2023/02/09 03:26:54;;;;;;;;;;;;;;;24.56;30.06;97007.78;4951948;28;1209;-64
2023/02/09 03:29:21;;;;;;;;;;;;;;;24.52;30.14;97002.94;4953171;28;1450;-64
2023/02/09 03:31:47;;;;;;;;;;;;;;;24.50;30.04;97002.28;4956996;28;1415;-64
2023/02/09 03:34:13;;;;;;;;;;;;;;;24.48;30.15;96999.78;4956925;28;1502;-64
2023/02/09 03:36:39;;;;;;;;;;;;;;;24.49;30.29;96998.78;4956412;28;800;-65
2023/02/09 03:39:04;;;;;;;;;;;;;;;24.44;30.46;97004.66;4957364;28;1403;-65
2023/02/09 03:41:30;;;;;;;;;;;;;;;24.45;30.60;96995.63;4974128;28;1997;-65
2023/02/09 03:46:39;;;;;;;;;;;;;;;24.42;30.32;97001.31;4957626;28;1296;-65
2023/02/09 03:49:04;;;;;;;;;;;;;;;24.38;30.37;97000.00;4967727;28;1403;-65
2023/02/09 03:51:29;;;;;;;;;;;;;;;24.39;30.43;97001.69;4967861;28;1375;-65
2023/02/09 03:53:54;;;;;;;;;;;;;;;24.36;30.41;97002.06;4957811;28;1514;-65
2023/02/09 03:56:23;;;;;;;;;;;;;;;24.34;30.62;97004.06;4955941;28;1419;-65
2023/02/09 03:58:49;;;;;;;;;;;;;;;24.35;30.60;97002.22;4964095;28;1451;-65
2023/02/09 04:01:14;;;;;;;;;;;;;;;24.39;30.59;97003.50;4951498;28;1895;-65
2023/02/09 04:03:39;;;;;;;;;;;;;;;24.43;30.48;97007.56;4969518;28;1453;-65
2023/02/09 04:06:04;;;;;;;;;;;;;;;24.02;27.84;96997.97;4971430;28;1434;-63
2023/02/09 04:08:32;;;;;;;;;;;;;;;24.06;29.14;97005.66;4955837;28;794;-66
2023/02/09 04:10:58;;;;;;;;;;;;;;;24.22;29.17;97005.53;4956887;28;1320;-75
2023/02/09 04:13:24;;;;;;;;;;;;;;;24.26;29.61;97001.44;4956060;28;1466;-66
2023/02/09 04:15:49;;;;;;;;;;;;;;;24.27;29.47;97005.78;4975022;28;1311;-65
2023/02/09 04:18:14;;;;;;;;;;;;;;;24.27;29.38;97004.97;4968884;28;1561;-65
2023/02/09 04:20:39;;;;;;;;;;;;;;;24.26;29.50;97006.00;4964932;28;1883;-65
2023/02/09 04:23:05;;;;;;;;;;;;;;;24.14;29.37;96982.28;4962108;28;1320;-65
2023/02/09 04:25:30;;;;;;;;;;;;;;;24.23;29.16;97008.00;4949493;28;1339;-65
2023/02/09 04:27:55;;;;;;;;;;;;;;;24.20;29.35;96999.50;4957079;28;1498;-65
2023/02/09 04:30:21;;;;;;;;;;;;;;;24.22;29.10;97003.66;4965300;28;1383;-65
2023/02/09 04:32:46;;;;;;;;;;;;;;;24.22;29.21;96994.78;4966241;28;1338;-65
2023/02/09 04:35:11;;;;;;;;;;;;;;;24.21;29.17;96993.94;4948595;28;1462;-65
2023/02/09 04:37:36;;;;;;;;;;;;;;;24.21;29.21;96995.78;4963283;28;1275;-65
2023/02/09 04:40:02;;;;;;;;;;;;;;;24.20;29.12;96994.13;4954814;28;1887;-65
2023/02/09 04:42:27;;;;;;;;;;;;;;;24.13;28.50;97006.56;4953677;28;1220;-67
2023/02/09 04:44:52;;;;;;;;;;;;;;;20.02;19.13;97005.53;4955076;28;888;-66
2023/02/09 04:47:18;;;;;;;;;;;;;;;17.14;18.54;97017.38;4948405;28;1306;-65
2023/02/09 04:49:43;;;;;;;;;;;;;;;14.79;19.17;97020.88;4964394;28;1415;-65
2023/02/09 04:52:08;;;;;;;;;;;;;;;13.30;21.10;97015.34;4968981;28;1477;-67
2023/02/09 04:54:34;;;;;;;;;;;;;;;14.83;23.82;97011.75;4955196;28;1097;-65
2023/02/09 04:59:43;;;;;;;;;;;;;;;18.76;24.36;97007.09;4953053;28;1960;-65
2023/02/09 05:02:09;;;;;;;;;;;;;;;19.07;22.03;97008.50;4955410;28;1443;-65
2023/02/09 05:04:34;;;;;;;;;;;;;;;19.52;23.34;97005.03;4970210;28;1226;-69
2023/02/09 05:06:59;;;;;;;;;;;;;;;20.33;23.95;97000.63;4962613;28;1336;-71
2023/02/09 05:09:25;;;;;;;;;;;;;;;20.89;23.97;96997.50;4961406;28;1489;-69
2023/02/09 05:11:50;;;;;;;;;;;;;;;21.28;23.98;97001.50;4973196;28;1171;-69
2023/02/09 05:14:15;;;;;;;;;;;;;;;21.47;23.90;97008.44;4958048;28;1422;-69
2023/02/09 05:16:40;;;;;;;;;;;;;;;21.58;24.14;97012.66;4973526;28;1481;-70
2023/02/09 05:19:06;;;;;;;;;;;;;;;21.73;24.31;97011.84;4969007;28;1422;-65
2023/02/09 05:21:31;;;;;;;;;;;;;;;21.94;24.31;97014.06;4955293;28;1968;-65
2023/02/09 05:23:56;;;;;;;;;;;;;;;21.98;24.46;97009.22;4973920;28;936;-65
2023/02/09 05:26:21;;;;;;;;;;;;;;;22.10;24.75;96997.19;4974184;28;809;-64
2023/02/09 05:28:47;;;;;;;;;;;;;;;22.14;24.61;97001.22;4973702;28;778;-64
2023/02/09 05:31:12;;;;;;;;;;;;;;;22.23;24.67;97002.09;4960180;28;1343;-66
2023/02/09 05:33:37;;;;;;;;;;;;;;;22.22;24.85;97011.09;4946094;28;1296;-66
2023/02/09 05:36:07;;;;;;;;;;;;;;;22.27;24.94;97013.28;4954488;28;858;-65
2023/02/09 05:38:33;;;;;;;;;;;;;;;22.26;24.87;97012.44;4954529;28;943;-66
2023/02/09 05:41:02;;;;;;;;;;;;;;;22.27;25.22;97011.44;4954611;28;1966;-65
2023/02/09 05:43:27;;;;;;;;;;;;;;;22.29;25.15;97017.44;4959495;28;1175;-65
2023/02/09 05:45:52;;;;;;;;;;;;;;;22.36;25.27;97022.97;4954049;28;1148;-66
2023/02/09 05:48:18;;;;;;;;;;;;;;;22.40;25.11;97027.81;4954435;28;939;-66
2023/02/09 05:50:43;;;;;;;;;;;;;;;22.46;25.04;97023.63;4954353;28;810;-66
2023/02/09 05:53:08;;;;;;;;;;;;;;;22.44;25.28;97021.13;4957323;28;858;-66
2023/02/09 05:55:34;;;;;;;;;;;;;;;22.47;25.28;97038.66;4946902;28;1193;-66
2023/02/09 05:57:59;;;;;;;;;;;;;;;22.49;25.34;97027.81;4958180;28;919;-66
2023/02/09 06:00:25;;;;;;;;;;;;;;;22.46;25.41;97020.97;4972655;28;1955;-66
2023/02/09 06:02:51;;;;;;;;;;;;;;;22.58;25.31;97022.28;4958010;28;861;-66
2023/02/09 06:05:16;;;;;;;;;;;;;;;22.59;25.33;97023.09;4955543;28;924;-66
2023/02/09 06:07:41;;;;;;;;;;;;;;;22.63;25.19;97027.97;4950341;28;1283;-66
2023/02/09 06:10:07;;;;;;;;;;;;;;;22.67;25.23;97026.59;4957893;28;934;-66
2023/02/09 06:12:32;;;;;;;;;;;;;;;22.71;25.36;97024.41;4957832;28;877;-66
2023/02/09 06:14:57;;;;;;;;;;;;;;;22.77;25.30;97020.22;4957768;29;833;-66
2023/02/09 06:17:23;;;;;;;;;;;;;;;22.73;25.24;97002.84;4947270;28;1201;-66
2023/02/09 06:19:48;;;;;;;;;;;;;;;22.83;25.24;97015.03;4957231;28;1965;-66
2023/02/09 06:22:13;;;;;;;;;;;;;;;22.87;25.24;97010.19;4957691;28;856;-66
2023/02/09 06:24:39;;;;;;;;;;;;;;;22.87;25.30;97010.19;4957779;28;876;-66
2023/02/09 06:27:04;;;;;;;;;;;;;;;22.87;25.15;97011.00;4957609;28;896;-66
2023/02/09 06:29:30;;;;;;;;;;;;;;;22.87;25.29;97018.22;4947618;28;1276;-66
2023/02/09 06:31:55;;;;;;;;;;;;;;;22.91;25.33;97016.88;4957532;28;813;-65
2023/02/09 06:34:21;;;;;;;;;;;;;;;22.92;25.14;97010.50;4957436;28;786;-66
2023/02/09 06:36:46;;;;;;;;;;;;;;;22.95;25.29;97017.34;4957583;28;875;-66
2023/02/09 06:39:11;;;;;;;;;;;;;;;22.94;25.26;97007.63;4956005;28;1384;-66
2023/02/09 06:41:36;;;;;;;;;;;;;;;22.98;25.34;97011.69;4947306;28;1969;-66
2023/02/09 06:44:02;;;;;;;;;;;;;;;23.00;25.15;97007.84;4957324;28;880;-65
2023/02/09 06:46:27;;;;;;;;;;;;;;;23.00;25.23;97001.66;4957465;28;1014;-65
2023/02/09 06:48:53;;;;;;;;;;;;;;;23.01;25.29;97001.47;4957186;28;1005;-65
2023/02/09 06:51:18;;;;;;;;;;;;;;;22.94;25.40;96989.75;4951444;28;1109;-65
2023/02/09 06:53:43;;;;;;;;;;;;;;;23.01;25.25;97003.31;4952972;28;1088;-66
2023/02/09 06:56:09;;;;;;;;;;;;;;;23.01;25.42;96992.59;4957333;28;889;-65
2023/02/09 06:58:36;;;;;;;;;;;;;;;23.00;25.50;96994.47;4957073;28;912;-65
2023/02/09 07:01:05;;;;;;;;;;;;;;;22.99;25.50;96992.75;4957214;28;1906;-65
2023/02/09 07:03:30;;;;;;;;;;;;;;;23.05;25.57;96992.09;4946216;28;1063;-65
2023/02/09 07:06:01;;;;;;;;;;;;;;;23.06;25.33;96993.75;4957009;28;1282;-66
2023/02/09 07:08:26;;;;;;;;;;;;;;;23.03;25.41;96994.09;4956904;28;948;-65
2023/02/09 07:10:51;;;;;;;;;;;;;;;23.05;25.50;96994.78;4956832;28;968;-66
2023/02/09 07:13:16;;;;;;;;;;;;;;;23.06;25.51;96993.75;4956728;28;906;-65
2023/02/09 07:15:42;;;;;;;;;;;;;;;23.08;25.34;96994.44;4946781;28;1301;-65
2023/02/09 07:18:07;;;;;;;;;;;;;;;23.08;25.44;96990.88;4956700;28;939;-65
2023/02/09 07:20:32;;;;;;;;;;;;;;;23.10;25.41;96994.25;4956586;28;1903;-65
2023/02/09 07:22:59;;;;;;;;;;;;;;;23.11;25.36;97002.13;4956605;28;936;-67
2023/02/09 07:25:24;;;;;;;;;;;;;;;23.12;25.43;96993.06;4950616;28;1086;-66
2023/02/09 07:27:49;;;;;;;;;;;;;;;23.15;25.60;96991.06;4951874;28;1388;-65
2023/02/09 07:30:15;;;;;;;;;;;;;;;23.14;25.50;96990.22;4956705;28;920;-65
2023/02/09 07:32:41;;;;;;;;;;;;;;;23.19;25.51;96992.38;4956471;28;972;-65
2023/02/09 07:35:06;;;;;;;;;;;;;;;23.19;25.58;96989.69;4956433;28;865;-65
2023/02/09 07:37:33;;;;;;;;;;;;;;;23.21;25.49;96991.19;4946497;28;1264;-65
2023/02/09 07:39:58;;;;;;;;;;;;;;;23.26;25.51;96996.03;4956213;28;1899;-65
2023/02/09 07:42:23;;;;;;;;;;;;;;;23.30;25.45;97002.69;4956282;28;937;-66
2023/02/09 07:44:48;;;;;;;;;;;;;;;23.29;25.46;96995.69;4956288;28;818;-66
2023/02/09 07:47:14;;;;;;;;;;;;;;;23.31;25.56;96991.00;4956222;28;881;-66
2023/02/09 07:49:39;;;;;;;;;;;;;;;23.33;25.39;96984.41;4946251;28;1300;-66
2023/02/09 07:52:04;;;;;;;;;;;;;;;23.33;25.28;96991.63;4970878;28;1357;-66
2023/02/09 07:54:29;;;;;;;;;;;;;;;23.35;25.47;96984.25;4956081;28;950;-66
2023/02/09 07:56:55;;;;;;;;;;;;;;;23.35;25.31;96981.59;4956128;28;814;-66
2023/02/09 07:59:20;;;;;;;;;;;;;;;23.37;25.48;96976.91;4951234;28;1054;-66
2023/02/09 08:01:45;;;;;;;;;;;;;;;23.39;25.55;96977.53;4950994;28;1957;-66
2023/02/09 08:04:11;;;;;;;;;;;;;;;23.41;25.40;96980.88;4955854;28;869;-66
2023/02/09 08:06:44;;;;;;;;;;;;;;;23.43;25.31;96978.03;4955683;28;1302;-66
2023/02/09 08:09:10;;;;;;;;;;;;;;;23.44;25.32;96975.16;4955893;28;798;-66
2023/02/09 08:11:55;;;;;;;;;;;;;;;23.46;25.27;96977.69;4945888;28;1041;-65
2023/02/09 08:14:24;;;;;;;;;;;;;;;23.47;25.45;96979.34;4955414;28;1070;-66
2023/02/09 08:16:51;;;;;;;;;;;;;;;23.49;25.42;96978.16;4955899;28;888;-65
2023/02/09 08:19:18;;;;;;;;;;;;;;;23.51;25.36;96983.34;4955516;28;908;-65
2023/02/09 08:21:45;;;;;;;;;;;;;;;23.53;25.14;96984.81;4949435;28;1914;-65
2023/02/09 08:24:11;;;;;;;;;;;;;;;23.54;25.36;96983.84;4950318;28;994;-65
2023/02/09 08:26:37;;;;;;;;;;;;;;;23.54;25.51;96988.34;4955662;28;1176;-65
2023/02/09 08:29:02;;;;;;;;;;;;;;;23.55;25.30;96987.34;4955421;28;877;-65
2023/02/09 08:31:28;;;;;;;;;;;;;;;23.56;25.17;96984.50;4955536;28;997;-65
2023/02/09 08:33:53;;;;;;;;;;;;;;;23.54;25.30;96981.16;4945568;28;1141;-65
2023/02/09 08:36:19;;;;;;;;;;;;;;;23.56;25.27;96983.63;4955000;28;1033;-65
2023/02/09 08:38:44;;;;;;;;;;;;;;;23.58;25.14;96971.75;4955269;28;1039;-65
2023/02/09 08:41:11;;;;;;;;;;;;;;;23.58;25.17;96971.75;4955098;28;1973;-65
2023/02/09 08:43:37;;;;;;;;;;;;;;;23.58;25.33;96970.91;4955105;28;782;-65
2023/02/09 08:46:02;;;;;;;;;;;;;;;23.59;25.33;96975.25;4945184;28;1120;-65
2023/02/09 08:48:30;;;;;;;;;;;;;;;23.60;25.27;96973.41;4955030;28;908;-66
2023/02/09 08:50:56;;;;;;;;;;;;;;;23.58;25.30;96976.25;4955017;28;814;-68
2023/02/09 08:53:21;;;;;;;;;;;;;;;23.59;25.31;96972.56;4954970;28;886;-65
2023/02/09 08:55:47;;;;;;;;;;;;;;;23.61;25.19;96981.28;4950151;28;1042;-65
2023/02/09 08:58:12;;;;;;;;;;;;;;;23.57;25.28;96977.28;4949605;28;1080;-65
2023/02/09 09:00:38;;;;;;;;;;;;;;;23.59;25.23;96972.56;4954835;28;1958;-65
2023/02/09 09:03:04;;;;;;;;;;;;;;;23.58;25.28;96982.44;4954878;28;909;-65
2023/02/09 09:05:29;;;;;;;;;;;;;;;23.57;25.28;96980.78;4954815;28;896;-65
2023/02/09 09:07:55;;;;;;;;;;;;;;;23.59;25.20;96985.97;4944886;28;1418;-65
2023/02/09 09:10:20;;;;;;;;;;;;;;;23.58;25.32;96984.31;4954487;28;1399;-65
2023/02/09 09:12:45;;;;;;;;;;;;;;;23.58;25.35;96987.81;4954696;28;869;-65
2023/02/09 09:15:10;;;;;;;;;;;;;;;23.58;25.29;96985.13;4955164;28;782;-65
2023/02/09 09:17:36;;;;;;;;;;;;;;;23.57;25.27;96991.50;4954592;28;877;-68
2023/02/09 09:20:01;;;;;;;;;;;;;;;23.58;25.35;96990.50;4944682;28;1899;-65
2023/02/09 09:22:27;;;;;;;;;;;;;;;23.58;25.39;96993.16;4954622;28;836;-65
2023/02/09 09:24:54;;;;;;;;;;;;;;;23.59;25.17;96983.28;4954711;28;924;-65
2023/02/09 09:27:19;;;;;;;;;;;;;;;23.58;25.18;96977.09;4958286;28;885;-64
2023/02/09 09:29:45;;;;;;;;;;;;;;;23.60;25.44;96989.50;4958057;28;857;-65
2023/02/09 09:32:12;;;;;;;;;;;;;;;23.60;25.47;96990.34;4969019;28;1309;-65
2023/02/09 09:34:38;;;;;;;;;;;;;;;23.61;25.17;96980.44;4960900;28;873;-65
2023/02/09 09:37:03;;;;;;;;;;;;;;;23.60;25.37;96984.16;4961143;28;870;-65
2023/02/09 09:39:28;;;;;;;;;;;;;;;23.61;25.31;96985.81;4960840;28;874;-65
2023/02/09 09:41:58;;;;;;;;;;;;;;;23.61;25.17;96980.44;4951285;28;1907;-66
2023/02/09 09:44:27;;;;;;;;;;;;;;;23.61;25.42;96977.75;4960519;28;961;-65
2023/02/09 09:46:53;;;;;;;;;;;;;;;23.60;25.52;96981.47;4961085;28;782;-65
2023/02/09 09:49:23;;;;;;;;;;;;;;;23.61;25.48;96980.44;4960728;28;798;-65
2023/02/09 09:52:00;;;;;;;;;;;;;;;23.60;25.41;96974.25;4960857;28;904;-65
2023/02/09 09:54:28;;;;;;;;;;;;;;;23.60;25.16;96968.91;4950945;28;1212;-65
2023/02/09 09:56:54;;;;;;;;;;;;;;;23.61;25.34;96975.91;4960690;28;852;-65
2023/02/09 09:59:22;;;;;;;;;;;;;;;23.61;25.35;96967.03;4960775;28;868;-65
2023/02/09 10:01:49;;;;;;;;;;;;;;;23.58;25.17;96966.38;4975468;28;1902;-64
2023/02/09 10:04:15;;;;;;;;;;;;;;;23.60;25.44;96965.38;4955778;28;1181;-65
2023/02/09 10:06:41;;;;;;;;;;;;;;;23.59;25.42;96964.53;4955722;28;1295;-65
2023/02/09 10:09:15;;;;;;;;;;;;;;;23.60;25.51;96962.72;4960716;28;857;-65
2023/02/09 10:11:44;;;;;;;;;;;;;;;23.60;25.38;96954.66;4960751;28;887;-65
2023/02/09 10:14:09;;;;;;;;;;;;;;;23.61;25.28;96953.66;4960731;28;944;-65
2023/02/09 10:16:36;;;;;;;;;;;;;;;23.60;25.30;96946.63;4950820;28;1149;-66
2023/02/09 10:19:15;;;;;;;;;;;;;;;23.58;25.32;96939.59;4960656;28;872;-66
2023/02/09 10:21:40;;;;;;;;;;;;;;;23.61;25.37;96937.56;4960869;28;1919;-65
2023/02/09 10:24:12;;;;;;;;;;;;;;;23.61;25.45;96938.41;4960574;28;869;-65
2023/02/09 10:26:39;;;;;;;;;;;;;;;23.42;25.43;96912.88;4955271;28;1315;-65
2023/02/09 10:29:10;;;;;;;;;;;;;;;23.58;25.55;96934.22;4955311;28;1086;-65
2023/02/09 10:31:43;;;;;;;;;;;;;;;23.58;25.31;96936.91;4960481;28;1086;-65
2023/02/09 10:34:11;;;;;;;;;;;;;;;23.57;25.53;96932.56;4960516;28;782;-65
2023/02/09 10:36:43;;;;;;;;;;;;;;;23.56;25.62;96928.22;4960502;28;865;-65
2023/02/09 10:39:11;;;;;;;;;;;;;;;23.57;25.52;96932.56;4947511;28;1159;-65
2023/02/09 10:41:37;;;;;;;;;;;;;;;23.57;25.48;96923.69;4956023;28;1974;-65
2023/02/09 10:44:21;;;;;;;;;;;;;;;23.57;25.43;96918.34;4957403;28;936;-65
2023/02/09 10:46:47;;;;;;;;;;;;;;;23.55;25.40;96923.03;4957324;28;786;-65
2023/02/09 10:49:25;;;;;;;;;;;;;;;23.56;25.59;96914.84;4955223;28;1363;-66
2023/02/09 10:51:55;;;;;;;;;;;;;;;23.57;25.56;96913.81;4952052;28;1114;-65
2023/02/09 10:54:20;;;;;;;;;;;;;;;23.60;25.50;96909.13;4957267;28;867;-65
2023/02/09 10:56:47;;;;;;;;;;;;;;;23.58;25.38;96906.59;4957249;28;817;-65
2023/02/09 10:59:17;;;;;;;;;;;;;;;23.54;25.57;96906.13;4957365;28;1218;-66
2023/02/09 11:01:43;;;;;;;;;;;;;;;23.58;25.56;96910.09;4947314;28;2020;-66
2023/02/09 11:04:14;;;;;;;;;;;;;;;23.57;25.54;96896.91;4955831;28;1206;-65
2023/02/09 11:06:42;;;;;;;;;;;;;;;23.56;25.55;96905.94;4956770;28;1378;-66
2023/02/09 11:09:34;;;;;;;;;;;;;;;23.56;25.47;96904.13;4955766;28;1320;-65
2023/02/09 11:11:59;;;;;;;;;;;;;;;23.56;25.57;96898.75;4946403;28;1237;-66
2023/02/09 11:14:25;;;;;;;;;;;;;;;23.56;25.52;96898.75;4949793;28;1149;-65
2023/02/09 11:16:50;;;;;;;;;;;;;;;23.55;25.45;96893.56;4956885;28;944;-66
2023/02/09 11:19:21;;;;;;;;;;;;;;;23.51;25.40;96893.09;4956848;28;810;-66
2023/02/09 11:21:46;;;;;;;;;;;;;;;23.52;25.47;96888.56;4956711;28;1977;-66
2023/02/09 11:24:12;;;;;;;;;;;;;;;23.53;25.74;96888.38;4945813;28;1185;-66
2023/02/09 11:26:57;;;;;;;;;;;;;;;23.53;25.48;96876.81;4956479;28;1048;-66
2023/02/09 11:29:29;;;;;;;;;;;;;;;23.55;25.72;96880.16;4964580;28;1381;-66
2023/02/09 11:32:17;;;;;;;;;;;;;;;23.50;25.65;96877.19;4956880;28;814;-66
2023/02/09 11:34:53;;;;;;;;;;;;;;;23.49;25.58;96876.34;4952796;28;1326;-66
2023/02/09 11:37:24;;;;;;;;;;;;;;;23.50;25.72;96878.00;4951337;28;1259;-66
2023/02/09 11:40:07;;;;;;;;;;;;;;;23.49;25.66;96876.34;4971180;28;1895;-66
2023/02/09 11:42:44;;;;;;;;;;;;;;;23.47;25.52;96856.94;4956397;28;921;-66
2023/02/09 11:45:27;;;;;;;;;;;;;;;23.51;25.60;96855.59;4956466;28;857;-66
2023/02/09 11:47:56;;;;;;;;;;;;;;;23.54;25.57;96857.91;4946524;28;1203;-66
2023/02/09 11:50:41;;;;;;;;;;;;;;;23.50;25.57;96861.13;4956227;28;884;-66
2023/02/09 11:53:14;;;;;;;;;;;;;;;23.47;25.66;96846.22;4956360;28;841;-66
2023/02/09 11:55:43;;;;;;;;;;;;;;;23.51;25.81;96849.41;4956343;28;802;-66
2023/02/09 11:58:23;;;;;;;;;;;;;;;23.53;25.46;96845.50;4948312;28;1181;-64
2023/02/09 12:00:52;;;;;;;;;;;;;;;23.51;25.48;96847.56;4955819;28;1902;-65
2023/02/09 12:03:18;;;;;;;;;;;;;;;23.50;25.61;96837.00;4956286;28;853;-65
2023/02/09 12:05:43;;;;;;;;;;;;;;;23.51;25.64;96839.50;4955970;28;821;-66
2023/02/09 12:08:12;;;;;;;;;;;;;;;23.55;25.69;96842.66;4955631;28;1321;-65
2023/02/09 12:10:40;;;;;;;;;;;;;;;23.49;25.75;96838.84;4946015;28;1135;-65
2023/02/09 12:13:12;;;;;;;;;;;;;;;23.48;25.47;96839.88;4955788;28;920;-64
2023/02/09 12:15:43;;;;;;;;;;;;;;;23.51;25.63;96842.19;4954728;28;1173;-65
2023/02/09 12:18:13;;;;;;;;;;;;;;;23.50;25.69;96835.16;4955696;28;959;-65
2023/02/09 12:20:39;;;;;;;;;;;;;;;23.48;25.61;96839.00;4950608;28;1960;-65
2023/02/09 12:23:29;;;;;;;;;;;;;;;23.49;25.55;96825.47;4950697;28;938;-65
2023/02/09 12:25:58;;;;;;;;;;;;;;;23.50;25.84;96824.44;4955613;28;869;-65
2023/02/09 12:28:26;;;;;;;;;;;;;;;23.50;25.76;96824.44;4955664;28;864;-65
2023/02/09 12:30:52;;;;;;;;;;;;;;;23.48;25.72;96826.47;4955543;28;880;-65
2023/02/09 12:33:18;;;;;;;;;;;;;;;23.49;25.57;96817.41;4945659;28;1155;-65
2023/02/09 12:36:04;;;;;;;;;;;;;;;23.50;25.50;96821.75;4955835;28;870;-66
2023/02/09 12:38:48;;;;;;;;;;;;;;;23.49;25.73;96816.59;4951515;28;1081;-65
2023/02/09 12:41:13;;;;;;;;;;;;;;;23.47;25.72;96806.03;4955406;28;1953;-65
2023/02/09 12:43:39;;;;;;;;;;;;;;;23.47;25.73;96803.38;4961154;28;1632;-65
2023/02/09 12:46:20;;;;;;;;;;;;;;;23.46;25.63;96793.66;4954656;28;1118;-65
2023/02/09 12:48:49;;;;;;;;;;;;;;;23.49;25.74;96793.31;4955272;28;917;-65
2023/02/09 12:51:43;;;;;;;;;;;;;;;23.47;25.60;96791.81;4955118;28;953;-65
2023/02/09 12:54:32;;;;;;;;;;;;;;;23.46;25.75;96792.84;4950343;28;1244;-65
2023/02/09 12:57:15;;;;;;;;;;;;;;;23.47;25.75;96797.19;4959344;28;1232;-65
2023/02/09 12:59:58;;;;;;;;;;;;;;;23.46;25.73;96790.16;4953879;28;830;-66
2023/02/09 13:02:41;;;;;;;;;;;;;;;23.42;25.80;96800.38;4954512;28;904;-66
2023/02/09 13:05:17;;;;;;;;;;;;;;;23.45;25.68;96793.84;4955004;28;817;-66
2023/02/09 13:07:48;;;;;;;;;;;;;;;23.44;25.71;96784.97;4944827;28;1329;-66
2023/02/09 13:10:14;;;;;;;;;;;;;;;23.46;25.80;96782.97;4953704;28;1194;-66
2023/02/09 13:12:43;;;;;;;;;;;;;;;23.44;25.63;96787.66;4955011;28;863;-66